createdAt,value
2017-10-04T00:00:24.379Z,10.10
2017-10-04T00:02:51.955Z,10.10
2017-10-04T00:05:19.479Z,10.10
2017-10-04T00:07:47.780Z,10.10
2017-10-04T00:10:16.419Z,10.00
2017-10-04T00:12:43.951Z,10.00
2017-10-04T00:15:11.519Z,10.10
2017-10-04T00:17:39.080Z,10.20
2017-10-04T00:20:06.615Z,10.10
2017-10-04T00:22:34.138Z,10.10
2017-10-04T00:25:02.271Z,10.20
2017-10-04T00:27:29.795Z,10.10
2017-10-04T00:29:57.318Z,10.00
2017-10-04T00:32:24.875Z,10.10
2017-10-04T00:34:52.416Z,10.00
2017-10-04T00:37:19.942Z,10.00
2017-10-04T00:39:47.508Z,10.10
2017-10-04T00:42:16.384Z,10.10
2017-10-04T00:44:43.907Z,10.20
2017-10-04T00:47:12.247Z,10.20
2017-10-04T00:49:39.775Z,10.10
2017-10-04T00:52:07.304Z,10.20
2017-10-04T00:54:35.627Z,10.20
2017-10-04T00:57:03.158Z,10.10
2017-10-04T00:59:30.691Z,10.20
2017-10-04T01:01:58.250Z,10.10
2017-10-04T01:04:25.783Z,10.10
2017-10-04T01:06:53.303Z,10.10
2017-10-04T01:09:20.907Z,10.10
2017-10-04T01:11:48.439Z,10.00
2017-10-04T01:14:17.195Z,9.90
2017-10-04T01:16:44.751Z,9.90
2017-10-04T01:19:13.963Z,9.80
2017-10-04T01:21:41.495Z,9.80
2017-10-04T01:24:09.063Z,9.70
2017-10-04T01:26:37.856Z,9.70
2017-10-04T01:29:06.148Z,9.60
2017-10-04T01:31:34.059Z,9.60
2017-10-04T01:34:01.587Z,9.50
2017-10-04T01:36:29.144Z,9.50
2017-10-04T01:38:56.694Z,9.40
2017-10-04T01:41:24.279Z,9.30
2017-10-04T01:43:51.806Z,9.30
2017-10-04T01:46:19.354Z,9.30
2017-10-04T01:48:47.646Z,9.30
2017-10-04T01:51:16.363Z,9.30
2017-10-04T01:53:43.943Z,9.30
2017-10-04T01:56:11.472Z,9.20
2017-10-04T01:58:38.994Z,9.20
2017-10-04T02:01:06.564Z,9.20
2017-10-04T02:03:34.939Z,9.10
2017-10-04T02:06:02.467Z,9.10
2017-10-04T02:08:30.023Z,9.10
2017-10-04T02:10:57.557Z,9.10
2017-10-04T02:13:25.083Z,9.10
2017-10-04T02:15:52.658Z,9.10
2017-10-04T02:18:20.194Z,9.00
2017-10-04T02:20:47.720Z,9.00
2017-10-04T02:23:16.418Z,9.00
2017-10-04T02:25:43.945Z,9.00
2017-10-04T02:28:11.999Z,8.90
2017-10-04T02:30:39.607Z,9.00
2017-10-04T02:33:07.135Z,8.90
2017-10-04T02:35:34.675Z,9.00
2017-10-04T02:38:02.247Z,9.00
2017-10-04T02:40:29.773Z,8.90
2017-10-04T02:42:57.300Z,8.90
2017-10-04T02:45:24.847Z,8.90
2017-10-04T02:47:52.374Z,8.80
2017-10-04T02:50:19.905Z,8.80
2017-10-04T02:52:47.467Z,8.80
2017-10-04T02:55:16.426Z,8.80
2017-10-04T02:57:44.007Z,8.80
2017-10-04T03:00:11.614Z,8.70
2017-10-04T03:02:39.159Z,8.60
2017-10-04T03:05:06.755Z,8.60
2017-10-04T03:07:34.316Z,8.60
2017-10-04T03:10:01.939Z,8.50
2017-10-04T03:12:30.240Z,8.50
2017-10-04T03:14:57.787Z,8.40
2017-10-04T03:17:25.319Z,8.40
2017-10-04T03:19:53.645Z,8.40
2017-10-04T03:22:21.495Z,8.40
2017-10-04T03:24:49.019Z,8.40
2017-10-04T03:27:16.572Z,8.40
2017-10-04T03:29:44.744Z,8.30
2017-10-04T03:32:12.300Z,8.30
2017-10-04T03:34:39.816Z,8.30
2017-10-04T03:37:07.373Z,8.30
2017-10-04T03:39:34.905Z,8.30
2017-10-04T03:42:03.196Z,8.20
2017-10-04T03:44:30.799Z,8.20
2017-10-04T03:46:58.327Z,8.20
2017-10-04T03:49:25.869Z,8.20
2017-10-04T03:51:54.187Z,8.20
2017-10-04T03:54:21.715Z,8.10
2017-10-04T03:56:49.251Z,8.20
2017-10-04T03:59:17.592Z,8.20
2017-10-04T04:01:45.129Z,8.20
2017-10-04T04:04:13.596Z,8.10
2017-10-04T04:06:41.174Z,8.10
2017-10-04T04:09:08.779Z,8.10
2017-10-04T04:11:38.416Z,8.00
2017-10-04T04:14:05.967Z,8.10
2017-10-04T04:16:33.585Z,8.10
2017-10-04T04:19:01.109Z,8.00
2017-10-04T04:21:28.676Z,8.00
2017-10-04T04:23:56.203Z,8.00
2017-10-04T04:26:24.495Z,7.90
2017-10-04T04:28:52.128Z,7.90
2017-10-04T04:31:20.215Z,7.90
2017-10-04T04:33:48.512Z,7.80
2017-10-04T04:36:17.160Z,7.80
2017-10-04T04:38:56.715Z,7.80
2017-10-04T04:41:25.044Z,7.70
2017-10-04T04:43:52.580Z,7.70
2017-10-04T04:46:20.107Z,7.70
2017-10-04T04:48:48.455Z,7.70
2017-10-04T04:51:16.383Z,7.60
2017-10-04T04:53:43.907Z,7.60
2017-10-04T04:56:12.238Z,7.60
2017-10-04T04:58:39.773Z,7.60
2017-10-04T05:01:07.295Z,7.60
2017-10-04T05:03:34.846Z,7.70
2017-10-04T05:06:02.366Z,7.70
2017-10-04T05:08:29.899Z,7.80
2017-10-04T05:10:57.754Z,7.70
2017-10-04T05:13:26.059Z,7.80
2017-10-04T05:15:53.599Z,7.80
2017-10-04T05:18:21.924Z,7.90
2017-10-04T05:20:49.464Z,7.80
2017-10-04T05:23:17.000Z,7.90
2017-10-04T05:25:44.566Z,7.80
2017-10-04T05:28:13.996Z,7.80
2017-10-04T05:30:41.545Z,7.80
2017-10-04T05:33:09.751Z,7.90
2017-10-04T05:35:37.279Z,7.90
2017-10-04T05:38:04.817Z,7.80
2017-10-04T05:40:33.177Z,7.90
2017-10-04T05:43:00.708Z,7.80
2017-10-04T05:45:28.246Z,7.90
2017-10-04T05:47:55.818Z,7.90
2017-10-04T05:50:23.375Z,7.90
2017-10-04T05:52:50.906Z,7.90
2017-10-04T05:55:18.485Z,8.00
2017-10-04T05:57:46.011Z,8.10
2017-10-04T06:00:15.431Z,8.10
2017-10-04T06:02:42.987Z,8.10
2017-10-04T06:05:10.515Z,8.20
2017-10-04T06:07:38.042Z,8.20
2017-10-04T06:10:05.584Z,8.30
2017-10-04T06:12:33.119Z,8.30
2017-10-04T06:15:01.406Z,8.50
2017-10-04T06:17:29.020Z,8.40
2017-10-04T06:19:56.559Z,8.50
2017-10-04T06:22:24.090Z,8.70
2017-10-04T06:24:51.643Z,8.80
2017-10-04T06:27:19.170Z,8.80
2017-10-04T06:29:46.699Z,9.00
2017-10-04T06:32:15.522Z,9.20
2017-10-04T06:34:43.338Z,9.30
2017-10-04T06:37:10.858Z,9.40
2017-10-04T06:39:38.465Z,9.50
2017-10-04T06:42:05.989Z,9.70
2017-10-04T06:44:34.278Z,9.90
2017-10-04T06:47:01.835Z,9.90
2017-10-04T06:49:29.363Z,10.00
2017-10-04T06:51:56.882Z,10.10
2017-10-04T06:54:24.435Z,10.10
2017-10-04T06:56:51.967Z,10.00
2017-10-04T06:59:20.263Z,9.90
2017-10-04T07:01:47.863Z,9.80
2017-10-04T07:04:15.508Z,9.80
2017-10-04T07:06:43.031Z,9.80
2017-10-04T07:09:10.587Z,10.20
2017-10-04T07:11:38.123Z,10.30
2017-10-04T07:14:06.423Z,10.80
2017-10-04T07:16:33.979Z,10.80
2017-10-04T07:19:01.521Z,11.50
2017-10-04T07:21:29.824Z,14.60
2017-10-04T07:23:57.415Z,14.50
2017-10-04T07:26:24.948Z,17.30
2017-10-04T07:28:53.623Z,20.70
2017-10-04T07:31:21.203Z,20.70
2017-10-04T07:33:48.735Z,22.10
2017-10-04T07:36:16.419Z,22.70
2017-10-04T07:38:43.991Z,22.80
2017-10-04T07:41:11.515Z,22.20
2017-10-04T07:43:39.059Z,20.70
2017-10-04T07:46:06.662Z,21.10
2017-10-04T07:48:34.194Z,20.80
2017-10-04T07:51:01.731Z,21.20
2017-10-04T07:53:29.296Z,21.30
2017-10-04T07:55:56.823Z,20.90
2017-10-04T07:58:24.383Z,20.00
2017-10-04T08:00:51.938Z,20.00
2017-10-04T08:03:19.467Z,19.60
2017-10-04T08:05:47.003Z,18.80
2017-10-04T08:08:16.387Z,20.60
2017-10-04T08:10:43.923Z,20.60
2017-10-04T08:13:11.456Z,20.70
2017-10-04T08:15:39.014Z,20.70
2017-10-04T08:18:06.546Z,21.30
2017-10-04T08:20:34.116Z,21.00
2017-10-04T08:23:01.704Z,20.50
2017-10-04T08:25:29.239Z,20.10
2017-10-04T08:27:56.799Z,19.40
2017-10-04T08:30:25.211Z,18.20
2017-10-04T08:32:52.748Z,18.10
2017-10-04T08:35:20.279Z,17.30
2017-10-04T08:37:48.135Z,17.10
2017-10-04T08:40:17.271Z,16.90
2017-10-04T08:42:44.803Z,16.90
2017-10-04T08:45:12.358Z,16.60
2017-10-04T08:47:49.624Z,16.00
2017-10-04T08:50:17.243Z,16.20
2017-10-04T08:52:44.775Z,16.40
2017-10-04T08:55:12.305Z,16.40
2017-10-04T08:57:39.865Z,16.40
2017-10-04T09:00:07.395Z,16.50
2017-10-04T09:02:34.935Z,16.70
2017-10-04T09:05:08.437Z,16.50
2017-10-04T09:07:35.963Z,16.80
2017-10-04T09:10:03.488Z,16.80
2017-10-04T09:12:31.076Z,17.10
2017-10-04T09:14:58.635Z,17.30
2017-10-04T09:17:26.175Z,17.50
2017-10-04T09:19:53.730Z,18.10
2017-10-04T09:22:21.262Z,18.90
2017-10-04T09:24:48.795Z,19.80
2017-10-04T09:27:16.515Z,20.80
2017-10-04T09:29:44.044Z,20.80
2017-10-04T09:32:11.571Z,20.70
2017-10-04T09:34:39.951Z,21.20
2017-10-04T09:37:08.252Z,21.50
2017-10-04T09:39:36.622Z,21.50
2017-10-04T09:42:04.232Z,21.00
2017-10-04T09:44:31.836Z,21.30
2017-10-04T09:47:00.183Z,22.30
2017-10-04T09:49:27.770Z,22.30
2017-10-04T09:51:55.331Z,24.10
2017-10-04T09:54:22.922Z,24.80
2017-10-04T09:56:50.655Z,24.50
2017-10-04T09:59:18.174Z,23.80
2017-10-04T10:01:45.714Z,23.50
2017-10-04T10:04:15.339Z,21.70
2017-10-04T10:06:42.871Z,21.60
2017-10-04T10:09:10.406Z,20.20
2017-10-04T10:11:37.963Z,19.70
2017-10-04T10:14:06.254Z,19.20
2017-10-04T10:16:33.851Z,19.10
2017-10-04T10:19:01.443Z,18.70
2017-10-04T10:21:28.971Z,18.20
2017-10-04T10:23:56.495Z,18.00
2017-10-04T10:26:24.038Z,18.00
2017-10-04T10:28:51.585Z,17.90
2017-10-04T10:31:19.111Z,17.80
2017-10-04T10:33:46.684Z,17.90
2017-10-04T10:36:15.483Z,17.40
2017-10-04T10:38:43.079Z,17.40
2017-10-04T10:41:11.735Z,17.10
2017-10-04T10:43:39.263Z,17.10
2017-10-04T10:46:06.799Z,17.20
2017-10-04T10:48:34.363Z,17.20
2017-10-04T10:51:01.888Z,17.10
2017-10-04T10:53:30.184Z,16.80
2017-10-04T10:55:57.739Z,16.80
2017-10-04T10:58:26.026Z,16.60
2017-10-04T11:00:53.551Z,16.60
2017-10-04T11:03:21.393Z,16.70
2017-10-04T11:05:48.923Z,16.80
2017-10-04T11:08:16.462Z,16.70
2017-10-04T11:10:44.019Z,16.70
2017-10-04T11:13:12.315Z,16.90
2017-10-04T11:15:39.835Z,16.90
2017-10-04T11:18:07.397Z,16.80
2017-10-04T11:20:35.704Z,16.60
2017-10-04T11:23:03.243Z,16.50
2017-10-04T11:25:31.635Z,16.80
2017-10-04T11:27:59.167Z,16.80
2017-10-04T11:30:27.807Z,16.80
2017-10-04T11:32:55.363Z,16.80
2017-10-04T11:35:22.895Z,16.80
2017-10-04T11:37:51.191Z,16.70
2017-10-04T11:40:18.747Z,16.70
2017-10-04T11:42:46.819Z,16.90
2017-10-04T11:45:15.528Z,17.00
2017-10-04T11:47:43.156Z,17.20
2017-10-04T11:50:16.604Z,17.60
2017-10-04T11:52:44.210Z,17.90
2017-10-04T11:55:11.768Z,17.90
2017-10-04T11:57:40.059Z,18.20
2017-10-04T12:00:07.619Z,18.20
2017-10-04T12:02:35.151Z,18.30
2017-10-04T12:05:03.454Z,17.90
2017-10-04T12:07:31.049Z,17.90
2017-10-04T12:09:58.583Z,18.00
2017-10-04T12:12:26.123Z,17.90
2017-10-04T12:14:54.471Z,18.00
2017-10-04T12:17:22.003Z,17.90
2017-10-04T12:19:49.536Z,18.10
2017-10-04T12:22:17.099Z,18.40
2017-10-04T12:24:44.640Z,18.60
2017-10-04T12:27:13.868Z,18.80
2017-10-04T12:29:41.451Z,18.80
2017-10-04T12:32:08.984Z,19.00
2017-10-04T12:34:36.624Z,19.20
2017-10-04T12:37:04.953Z,19.10
2017-10-04T12:39:32.481Z,19.00
2017-10-04T12:42:00.016Z,19.00
2017-10-04T12:44:28.156Z,18.90
2017-10-04T12:46:55.688Z,18.90
2017-10-04T12:49:23.210Z,18.90
2017-10-04T12:51:51.584Z,18.70
2017-10-04T12:54:19.875Z,18.70
2017-10-04T12:56:47.411Z,18.70
2017-10-04T12:59:16.511Z,18.60
2017-10-04T13:01:44.050Z,18.40
2017-10-04T13:04:11.588Z,18.30
2017-10-04T13:06:39.160Z,18.00
2017-10-04T13:09:06.694Z,18.00
2017-10-04T13:11:34.332Z,18.10
2017-10-04T13:14:02.075Z,18.10
2017-10-04T13:16:30.379Z,18.10
2017-10-04T13:18:57.912Z,18.10
2017-10-04T13:21:26.240Z,17.80
2017-10-04T13:23:53.778Z,17.80
2017-10-04T13:26:21.318Z,17.80
2017-10-04T13:28:49.655Z,17.90
2017-10-04T13:31:17.183Z,17.90
2017-10-04T13:33:44.715Z,18.00
2017-10-04T13:36:12.286Z,18.10
2017-10-04T13:38:39.815Z,18.20
2017-10-04T13:41:07.360Z,18.20
2017-10-04T13:43:34.937Z,18.20
2017-10-04T13:46:03.712Z,18.20
2017-10-04T13:48:31.250Z,18.20
2017-10-04T13:50:58.804Z,18.20
2017-10-04T13:53:26.331Z,18.20
2017-10-04T13:55:53.860Z,18.20
2017-10-04T13:58:22.227Z,18.10
2017-10-04T14:00:49.852Z,18.10
2017-10-04T14:03:17.498Z,18.10
2017-10-04T14:05:45.103Z,17.90
2017-10-04T14:08:12.712Z,17.80
2017-10-04T14:10:40.359Z,17.70
2017-10-04T14:13:08.796Z,17.40
2017-10-04T14:15:36.380Z,17.40
2017-10-04T14:18:04.030Z,17.40
2017-10-04T14:20:31.648Z,17.20
2017-10-04T14:22:59.256Z,17.20
2017-10-04T14:25:26.851Z,17.10
2017-10-04T14:27:54.459Z,17.10
2017-10-04T14:30:23.629Z,17.10
2017-10-04T14:32:54.964Z,17.00
2017-10-04T14:35:24.290Z,17.10
2017-10-04T14:37:51.823Z,17.10
2017-10-04T14:40:22.700Z,16.80
2017-10-04T14:42:50.312Z,16.80
2017-10-04T14:45:20.209Z,16.70
2017-10-04T14:47:50.941Z,16.70
2017-10-04T14:50:19.333Z,16.80
2017-10-04T14:52:47.642Z,16.80
2017-10-04T14:55:17.329Z,16.60
2017-10-04T14:57:44.941Z,16.60
2017-10-04T15:00:12.747Z,16.50
2017-10-04T15:02:40.423Z,16.40
2017-10-04T15:05:07.979Z,16.40
2017-10-04T15:07:37.280Z,16.50
2017-10-04T15:10:06.503Z,16.50
2017-10-04T15:12:34.077Z,16.50
2017-10-04T15:15:01.729Z,16.50
2017-10-04T15:17:29.509Z,16.40
2017-10-04T15:19:57.147Z,16.50
2017-10-04T15:22:25.775Z,16.50
2017-10-04T15:24:53.468Z,16.40
2017-10-04T15:27:21.109Z,16.30
2017-10-04T15:29:48.663Z,16.30
2017-10-04T15:34:50.438Z,16.20
2017-10-04T15:37:19.135Z,16.10
2017-10-04T15:39:46.688Z,16.10
2017-10-04T15:42:26.384Z,16.00
2017-10-04T15:48:27.908Z,15.70
2017-10-04T15:50:56.164Z,15.70
2017-10-04T15:53:23.714Z,15.70
2017-10-04T15:55:51.287Z,15.60
2017-10-04T15:58:18.852Z,15.50
2017-10-04T16:00:46.889Z,15.40
2017-10-04T16:03:25.357Z,15.30
2017-10-04T16:14:22.974Z,15.30
2017-10-04T16:16:50.548Z,14.70
2017-10-04T16:19:18.147Z,14.60
2017-10-04T16:21:45.931Z,14.60
2017-10-04T16:24:15.431Z,14.50
2017-10-04T16:26:42.996Z,14.60
2017-10-04T16:29:10.575Z,14.50
2017-10-04T16:31:38.833Z,14.40
2017-10-04T16:34:06.410Z,14.40
2017-10-04T16:36:34.004Z,14.30
2017-10-04T16:39:03.328Z,14.20
2017-10-04T16:41:31.715Z,14.10
2017-10-04T16:43:59.325Z,14.10
2017-10-04T16:46:26.956Z,14.10
2017-10-04T16:48:55.056Z,14.00
2017-10-04T16:51:22.681Z,14.00
2017-10-04T16:53:50.324Z,14.00
2017-10-04T16:56:19.651Z,14.00
2017-10-04T16:58:47.248Z,13.90
2017-10-04T17:01:16.440Z,13.90
2017-10-04T17:03:43.987Z,13.80
2017-10-04T17:06:11.795Z,13.70
2017-10-04T17:08:40.103Z,13.60
2017-10-04T17:11:07.636Z,13.60
2017-10-04T17:13:35.966Z,13.50
2017-10-04T17:16:03.523Z,13.50
2017-10-04T17:18:31.108Z,13.40
2017-10-04T17:20:59.460Z,13.40
2017-10-04T17:23:26.991Z,13.40
2017-10-04T17:25:54.525Z,13.30
2017-10-04T17:28:22.147Z,13.30
2017-10-04T17:30:51.095Z,13.40
2017-10-04T17:33:20.414Z,13.30
2017-10-04T17:35:48.828Z,13.20
2017-10-04T17:38:17.344Z,13.30
2017-10-04T17:40:45.703Z,13.20
2017-10-04T17:43:24.570Z,13.20
2017-10-04T17:55:13.235Z,13.20
2017-10-04T17:57:40.776Z,12.70
2017-10-04T18:00:09.161Z,12.70
2017-10-04T18:02:39.639Z,12.70
2017-10-04T18:05:07.228Z,12.70
2017-10-04T18:07:34.818Z,12.70
2017-10-04T18:10:02.414Z,12.60
2017-10-04T18:12:31.089Z,12.70
2017-10-04T18:14:59.456Z,12.60
2017-10-04T18:17:27.048Z,12.60
2017-10-04T18:19:54.616Z,12.70
2017-10-04T18:22:22.168Z,12.70
2017-10-04T18:24:49.787Z,12.70
2017-10-04T18:27:17.380Z,12.70
2017-10-04T18:29:45.675Z,12.60
2017-10-04T18:32:25.234Z,12.70
2017-10-04T18:40:01.800Z,12.40
2017-10-04T18:42:29.335Z,12.40
2017-10-04T18:44:56.879Z,12.40
2017-10-04T18:47:24.435Z,12.40
2017-10-04T18:49:51.964Z,12.50
2017-10-04T18:52:19.490Z,12.40
2017-10-04T18:54:47.056Z,12.40
2017-10-04T18:57:16.279Z,12.50
2017-10-04T18:59:43.826Z,12.50
2017-10-04T19:02:12.435Z,12.50
2017-10-04T19:04:39.959Z,12.50
2017-10-04T19:07:08.251Z,12.50
2017-10-04T19:09:35.806Z,12.50
2017-10-04T19:12:03.343Z,12.50
2017-10-04T19:14:30.895Z,12.40
2017-10-04T19:16:58.476Z,12.40
2017-10-04T19:19:26.027Z,12.40
2017-10-04T19:21:53.560Z,12.40
2017-10-04T19:24:21.187Z,12.50
2017-10-04T19:26:48.731Z,12.40
2017-10-04T19:29:16.539Z,12.40
2017-10-04T19:31:44.159Z,12.20
2017-10-04T19:34:11.770Z,12.20
2017-10-04T19:36:39.368Z,12.30
2017-10-04T19:39:07.738Z,12.30
2017-10-04T19:41:39.440Z,12.20
2017-10-04T19:44:07.747Z,12.20
2017-10-04T19:46:36.389Z,12.20
2017-10-04T19:49:03.968Z,12.20
2017-10-04T19:51:31.525Z,12.00
2017-10-04T19:53:59.176Z,12.00
2017-10-04T19:56:26.741Z,12.00
2017-10-04T19:58:54.291Z,12.00
2017-10-04T20:01:21.863Z,12.00
2017-10-04T20:03:49.390Z,11.90
2017-10-04T20:06:17.706Z,11.80
2017-10-04T20:08:45.295Z,11.80
2017-10-04T20:11:13.768Z,11.80
2017-10-04T20:13:41.369Z,11.80
2017-10-04T20:16:09.000Z,11.70
2017-10-04T20:18:36.523Z,11.70
2017-10-04T20:21:04.059Z,11.70
2017-10-04T20:23:32.483Z,11.70
2017-10-04T20:26:00.015Z,11.70
2017-10-04T20:28:27.546Z,11.70
2017-10-04T20:30:55.148Z,11.60
2017-10-04T20:33:22.679Z,11.60
2017-10-04T20:35:50.283Z,11.60
2017-10-04T20:38:17.912Z,11.50
2017-10-04T20:40:45.444Z,11.40
2017-10-04T20:43:14.560Z,11.50
2017-10-04T20:45:42.181Z,11.40
2017-10-04T20:48:09.736Z,11.30
2017-10-04T20:50:37.322Z,11.30
2017-10-04T20:53:05.716Z,11.30
2017-10-04T20:55:33.264Z,11.30
2017-10-04T20:58:01.564Z,11.30
2017-10-04T21:00:29.118Z,11.30
2017-10-04T21:02:56.646Z,11.30
2017-10-04T21:05:24.172Z,11.30
2017-10-04T21:07:51.783Z,11.30
2017-10-04T21:10:19.610Z,11.30
2017-10-04T21:12:47.218Z,11.30
2017-10-04T21:18:06.887Z,11.40
2017-10-04T21:20:35.317Z,11.50
2017-10-04T21:23:02.915Z,11.40
2017-10-04T21:25:30.442Z,11.50
2017-10-04T21:27:57.970Z,11.50
2017-10-04T21:30:26.291Z,11.60
2017-10-04T21:32:54.625Z,11.60
2017-10-04T21:35:22.264Z,11.70
2017-10-04T21:37:55.131Z,11.60
2017-10-04T21:40:22.751Z,11.70
2017-10-04T21:42:50.342Z,11.70
2017-10-04T21:45:18.040Z,11.80
2017-10-04T21:47:45.575Z,11.90
2017-10-04T21:50:24.507Z,11.80
2017-10-04T22:02:22.131Z,11.80
2017-10-04T22:04:49.683Z,11.80
2017-10-04T22:07:17.270Z,11.80
2017-10-04T22:09:44.851Z,11.80
2017-10-04T22:12:12.488Z,11.90
2017-10-04T22:14:40.028Z,11.90
2017-10-04T22:17:07.584Z,11.90
2017-10-04T22:19:35.120Z,11.90
2017-10-04T22:22:02.655Z,11.90
2017-10-04T22:24:31.000Z,12.00
2017-10-04T22:26:58.531Z,12.00
2017-10-04T22:29:26.068Z,12.00
2017-10-04T22:31:53.688Z,12.00
2017-10-04T22:34:21.211Z,12.00
2017-10-04T22:36:48.751Z,12.10
2017-10-04T22:39:17.233Z,12.10
2017-10-04T22:41:44.763Z,12.00
2017-10-04T22:44:12.294Z,12.10
2017-10-04T22:46:40.217Z,12.10
2017-10-04T22:49:07.739Z,12.10
2017-10-04T22:51:35.262Z,12.00
2017-10-04T22:54:02.819Z,12.00
2017-10-04T22:56:30.351Z,12.00
2017-10-04T22:58:57.933Z,11.90
2017-10-04T23:01:25.523Z,11.90
2017-10-04T23:03:53.567Z,12.00
2017-10-04T23:06:21.090Z,12.00
2017-10-04T23:08:48.687Z,12.00
2017-10-04T23:11:16.366Z,12.10
2017-10-04T23:13:43.885Z,12.10
2017-10-04T23:16:11.491Z,12.00
2017-10-04T23:18:39.019Z,12.10
2017-10-04T23:21:06.549Z,12.20
2017-10-04T23:23:34.131Z,12.10
2017-10-04T23:26:01.669Z,12.10
2017-10-04T23:28:29.203Z,12.10
2017-10-04T23:30:56.816Z,12.10
2017-10-04T23:33:24.355Z,12.10
2017-10-04T23:35:51.882Z,12.00
2017-10-04T23:38:19.452Z,12.00
2017-10-04T23:40:47.749Z,12.00
2017-10-04T23:43:15.564Z,12.00
2017-10-04T23:45:43.111Z,12.00
2017-10-04T23:48:10.883Z,12.00
2017-10-04T23:50:38.402Z,12.00
2017-10-04T23:53:05.982Z,12.00
2017-10-04T23:55:33.617Z,12.10
2017-10-04T23:58:01.160Z,12.00
